Terminal Aerodrome Forecast
Issued by NWS

Home | Current Version | Previous Version | Text Only | Print | Product List | Glossary On
Versions: 1 2 3 4 5 6 7 8 9 10 11 12 13
310
FTUS43 KGRB 110522
TAFMTW
TAF
KMTW 110522Z 1106/1206 32007KT P6SM SKC
     FM111500 28008G13KT P6SM SKC
     FM120000 24006KT P6SM BKN080=

USA.gov is the U.S. government's official web portal to all federal, state and local government web resources and services.